ウィントフック の空港の天気 - METARとTAF

ウィンドフック・ホセア・クタコ国際空港 ( FYWH / WDH ) - ナミビア ウィントフック
飛行場実況気象(Metar)
観測時間07/15 12:00 WAT (07/15 10:00 UTC)
風向・風速南東 5m/s
視程10km以上
天気現象
なし
気温9℃
湿度43%
気圧1034hPa
METARFYWH 151000Z 13010KT CAVOK 09/M03 Q1034 NOSIG
過去の天気等 Google飛行場航空写真 Wunderground天気予報

過去48時間のMETAR

飛行場予報(TAF)
発表時間: 7/15 06:00 WAT (7/15 04:00 UTC)
予報対象時間: 15日8時 WAT ~ 16日8時 WAT
風向・風速南西 3m/s
視程10km以上
なし
15日10時 WAT ~ 15日12時 WAT に徐々に
風向・風速東 7m/s
TAF FYWH 150400Z 1506/1606 23005KT CAVOK
BECMG 1508/1510 09014KT